createdAt,value
2019-03-20T00:00:44.627Z,6.33
2019-03-20T00:03:15.110Z,6.32
2019-03-20T00:05:45.531Z,6.42
2019-03-20T00:08:16.009Z,6.41
2019-03-20T00:10:46.400Z,6.39
2019-03-20T00:13:16.881Z,6.30
2019-03-20T00:15:47.288Z,6.24
2019-03-20T00:18:17.737Z,6.14
2019-03-20T00:20:48.136Z,6.12
2019-03-20T00:23:19.650Z,6.08
2019-03-20T00:25:50.077Z,5.93
2019-03-20T00:28:20.548Z,5.92
2019-03-20T00:30:50.965Z,5.92
2019-03-20T00:33:21.446Z,5.95
2019-03-20T00:35:51.945Z,5.89
2019-03-20T00:38:22.419Z,5.90
2019-03-20T00:40:52.935Z,5.95
2019-03-20T00:43:23.424Z,5.81
2019-03-20T00:45:53.821Z,5.86
2019-03-20T00:48:24.326Z,5.80
2019-03-20T00:50:54.719Z,5.84
2019-03-20T00:53:25.220Z,5.88
2019-03-20T00:55:55.643Z,5.92
2019-03-20T00:58:26.143Z,5.88
2019-03-20T01:00:56.542Z,5.86
2019-03-20T01:03:27.005Z,5.95
2019-03-20T01:05:57.470Z,5.77
2019-03-20T01:08:27.951Z,5.70
2019-03-20T01:10:58.386Z,5.71
2019-03-20T01:13:28.863Z,5.74
2019-03-20T01:15:59.270Z,5.70
2019-03-20T01:18:29.761Z,5.68
2019-03-20T01:21:00.280Z,5.70
2019-03-20T01:23:31.772Z,5.63
2019-03-20T01:26:02.166Z,5.65
2019-03-20T01:28:32.615Z,5.65
2019-03-20T01:31:03.002Z,5.56
2019-03-20T01:33:33.471Z,5.50
2019-03-20T01:36:03.899Z,5.57
2019-03-20T01:38:34.367Z,5.42
2019-03-20T01:41:04.767Z,5.41
2019-03-20T01:43:35.228Z,5.44
2019-03-20T01:46:05.761Z,5.41
2019-03-20T01:48:36.217Z,5.29
2019-03-20T01:51:20.828Z,5.22
2019-03-20T01:53:51.284Z,5.00
2019-03-20T01:56:21.679Z,4.83
2019-03-20T01:58:52.065Z,4.72
2019-03-20T02:01:22.411Z,4.51
2019-03-20T02:03:52.897Z,4.58
2019-03-20T02:06:23.332Z,4.60
2019-03-20T02:08:53.775Z,4.40
2019-03-20T02:11:24.203Z,4.40
2019-03-20T02:13:54.727Z,4.32
2019-03-20T02:16:25.140Z,4.22
2019-03-20T02:18:55.584Z,4.17
2019-03-20T02:21:25.982Z,4.16
2019-03-20T02:23:57.391Z,3.85
2019-03-20T02:26:27.847Z,3.89
2019-03-20T02:28:58.337Z,3.85
2019-03-20T02:31:28.812Z,3.95
2019-03-20T02:33:59.294Z,3.90
2019-03-20T02:36:29.766Z,3.94
2019-03-20T02:39:00.278Z,3.97
2019-03-20T02:41:30.677Z,3.99
2019-03-20T02:44:01.565Z,3.74
2019-03-20T02:46:31.978Z,3.80
2019-03-20T02:49:02.432Z,3.79
2019-03-20T02:51:32.875Z,3.59
2019-03-20T02:54:03.359Z,3.57
2019-03-20T02:56:33.759Z,3.72
2019-03-20T02:59:04.253Z,3.71
2019-03-20T03:01:34.687Z,3.70
2019-03-20T03:04:05.338Z,3.62
2019-03-20T03:06:35.775Z,3.55
2019-03-20T03:09:08.270Z,3.43
2019-03-20T03:11:38.691Z,3.44
2019-03-20T03:14:09.164Z,3.17
2019-03-20T03:16:39.581Z,2.96
2019-03-20T03:19:10.022Z,3.03
2019-03-20T03:21:40.466Z,3.06
2019-03-20T03:24:11.959Z,3.12
2019-03-20T03:26:42.395Z,2.94
2019-03-20T03:29:12.866Z,3.02
2019-03-20T03:31:43.302Z,3.06
2019-03-20T03:34:13.776Z,3.15
2019-03-20T03:36:44.210Z,3.08
2019-03-20T03:39:14.679Z,3.13
2019-03-20T03:41:45.117Z,3.00
2019-03-20T03:44:15.598Z,2.88
2019-03-20T03:46:46.006Z,2.80
2019-03-20T03:49:16.798Z,2.82
2019-03-20T03:51:47.211Z,2.88
2019-03-20T03:54:17.658Z,3.01
2019-03-20T03:56:48.888Z,3.09
2019-03-20T03:59:19.259Z,2.94
2019-03-20T04:01:49.746Z,2.89
2019-03-20T04:04:20.184Z,2.79
2019-03-20T04:06:50.592Z,2.77
2019-03-20T04:09:21.063Z,2.74
2019-03-20T04:11:51.478Z,2.82
2019-03-20T04:14:21.933Z,2.80
2019-03-20T04:16:52.375Z,3.02
2019-03-20T04:19:22.833Z,3.31
2019-03-20T04:21:53.228Z,3.44
2019-03-20T04:24:24.777Z,3.68
2019-03-20T04:26:56.073Z,3.62
2019-03-20T04:29:26.524Z,3.55
2019-03-20T04:31:56.972Z,3.59
2019-03-20T04:34:27.466Z,3.70
2019-03-20T04:36:57.991Z,3.61
2019-03-20T04:39:28.460Z,3.67
2019-03-20T04:41:58.867Z,3.79
2019-03-20T04:44:29.348Z,3.59
2019-03-20T04:46:59.807Z,3.80
2019-03-20T04:49:30.283Z,3.83
2019-03-20T04:52:00.727Z,3.74
2019-03-20T04:54:31.188Z,3.71
2019-03-20T04:57:01.644Z,3.59
2019-03-20T04:59:32.097Z,3.43
2019-03-20T05:02:02.502Z,3.38
2019-03-20T05:04:33.005Z,3.35
2019-03-20T05:07:03.440Z,3.39
2019-03-20T05:09:33.952Z,3.54
2019-03-20T05:12:04.420Z,3.57
2019-03-20T05:14:34.884Z,3.25
2019-03-20T05:17:05.351Z,2.74
2019-03-20T05:19:35.816Z,2.56
2019-03-20T05:22:06.349Z,2.80
2019-03-20T05:24:37.782Z,2.82
2019-03-20T05:27:08.207Z,2.69
2019-03-20T05:29:38.652Z,2.70
2019-03-20T05:32:09.068Z,2.74
2019-03-20T05:34:39.538Z,2.77
2019-03-20T05:37:10.902Z,2.54
2019-03-20T05:39:41.470Z,2.65
2019-03-20T05:42:11.892Z,2.59
2019-03-20T05:44:42.341Z,2.73
2019-03-20T05:47:12.777Z,2.81
2019-03-20T05:49:43.221Z,2.66
2019-03-20T05:52:13.659Z,2.79
2019-03-20T05:54:44.130Z,3.13
2019-03-20T05:57:14.586Z,2.79
2019-03-20T05:59:45.042Z,2.61
2019-03-20T06:02:15.483Z,2.94
2019-03-20T06:04:45.976Z,2.72
2019-03-20T06:07:21.561Z,2.82
2019-03-20T06:09:48.586Z,3.14
2019-03-20T06:12:19.394Z,2.70
2019-03-20T06:14:49.880Z,2.83
2019-03-20T06:17:20.336Z,3.02
2019-03-20T06:19:50.789Z,2.93
2019-03-20T06:22:22.556Z,2.92
2019-03-20T06:24:54.998Z,3.05
2019-03-20T06:27:25.425Z,3.32
2019-03-20T06:29:55.867Z,3.02
2019-03-20T06:32:26.295Z,3.11
2019-03-20T06:34:56.754Z,3.29
2019-03-20T06:37:32.494Z,3.61
2019-03-20T06:39:59.395Z,4.05
2019-03-20T06:42:29.876Z,4.27
2019-03-20T06:45:00.405Z,4.32
2019-03-20T06:47:31.637Z,4.55
2019-03-20T06:50:02.115Z,4.53
2019-03-20T06:52:32.549Z,4.80
2019-03-20T06:55:03.049Z,4.98
2019-03-20T06:57:33.470Z,5.12
2019-03-20T07:00:29.393Z,4.89
2019-03-20T07:03:01.389Z,4.49
2019-03-20T07:06:04.850Z,4.22
2019-03-20T07:08:53.021Z,4.48
2019-03-20T07:11:22.245Z,5.00
2019-03-20T07:13:52.689Z,4.96
2019-03-20T07:16:23.181Z,4.92
2019-03-20T07:18:53.623Z,5.04
2019-03-20T07:21:24.093Z,5.53
2019-03-20T07:23:54.529Z,5.32
2019-03-20T07:26:25.958Z,5.37
2019-03-20T07:28:56.402Z,5.61
2019-03-20T07:31:26.845Z,5.60
2019-03-20T07:33:57.262Z,5.72
2019-03-20T07:36:27.711Z,6.18
2019-03-20T07:38:58.147Z,6.28
2019-03-20T07:41:28.623Z,6.21
2019-03-20T07:44:00.256Z,6.28
2019-03-20T07:46:30.748Z,6.50
2019-03-20T07:49:01.186Z,6.71
2019-03-20T07:51:31.633Z,6.86
2019-03-20T07:54:02.041Z,6.80
2019-03-20T07:56:32.528Z,7.04
2019-03-20T07:59:03.385Z,6.94
2019-03-20T08:01:34.073Z,7.01
2019-03-20T08:04:04.635Z,7.14
2019-03-20T08:06:39.425Z,7.06
2019-03-20T08:09:12.837Z,7.02
2019-03-20T08:11:50.396Z,6.68
2019-03-20T08:14:22.863Z,7.09
2019-03-20T08:16:53.412Z,7.32
2019-03-20T08:19:25.294Z,7.23
2019-03-20T08:21:55.822Z,7.39
2019-03-20T08:24:26.449Z,7.50
2019-03-20T08:27:12.357Z,7.75
2019-03-20T08:29:49.274Z,7.90
2019-03-20T08:32:19.782Z,8.00
2019-03-20T08:34:50.233Z,7.94
2019-03-20T08:37:20.797Z,8.11
2019-03-20T08:39:51.231Z,8.44
2019-03-20T08:42:22.544Z,8.56
2019-03-20T08:44:55.402Z,8.79
2019-03-20T08:47:27.695Z,8.93
2019-03-20T08:49:58.169Z,9.08
2019-03-20T08:52:32.668Z,9.33
2019-03-20T08:55:10.417Z,9.48
2019-03-20T08:57:44.011Z,9.75
2019-03-20T09:00:25.240Z,9.74
2019-03-20T09:03:11.761Z,9.79
2019-03-20T09:05:49.775Z,10.11
2019-03-20T09:08:29.467Z,9.79
2019-03-20T09:10:54.722Z,10.14
2019-03-20T09:13:28.422Z,9.84
2019-03-20T09:16:01.363Z,9.87
2019-03-20T09:18:36.284Z,10.39
2019-03-20T09:21:06.760Z,10.68
2019-03-20T09:23:37.302Z,10.99
2019-03-20T09:26:07.781Z,10.99
2019-03-20T09:28:39.309Z,11.08
2019-03-20T09:31:09.725Z,11.08
2019-03-20T09:33:41.731Z,11.56
2019-03-20T09:36:12.231Z,11.25
2019-03-20T09:38:44.247Z,11.25
2019-03-20T09:41:14.662Z,11.19
2019-03-20T09:43:45.139Z,11.67
2019-03-20T09:46:15.600Z,12.11
2019-03-20T09:48:46.083Z,11.65
2019-03-20T09:51:27.054Z,11.81
2019-03-20T09:54:01.545Z,12.20
2019-03-20T09:56:32.247Z,11.87
2019-03-20T09:59:03.225Z,12.35
2019-03-20T10:01:40.947Z,12.15
2019-03-20T10:04:18.874Z,12.73
2019-03-20T10:07:00.618Z,13.26
2019-03-20T10:09:31.118Z,13.48
2019-03-20T10:12:01.542Z,13.86
2019-03-20T10:14:32.069Z,13.28
2019-03-20T10:17:02.502Z,13.37
2019-03-20T10:19:33.166Z,13.38
2019-03-20T10:22:03.608Z,12.64
2019-03-20T10:24:34.273Z,13.50
2019-03-20T10:27:04.895Z,13.71
2019-03-20T10:29:40.585Z,13.97
2019-03-20T10:32:11.190Z,13.41
2019-03-20T10:34:41.959Z,14.02
2019-03-20T10:37:13.474Z,14.04
2019-03-20T10:39:43.977Z,14.32
2019-03-20T10:42:14.405Z,15.09
2019-03-20T10:44:44.993Z,15.54
2019-03-20T10:47:15.564Z,16.22
2019-03-20T10:49:46.220Z,16.78
2019-03-20T10:52:21.302Z,17.29
2019-03-20T10:54:52.275Z,17.26
2019-03-20T10:57:22.838Z,17.14
2019-03-20T10:59:53.469Z,17.57
2019-03-20T11:02:24.077Z,17.42
2019-03-20T11:04:57.742Z,17.45
2019-03-20T11:07:28.219Z,17.92
2019-03-20T11:09:58.810Z,18.32
2019-03-20T11:12:30.966Z,17.91
2019-03-20T11:16:55.107Z,18.34
2019-03-20T11:19:26.189Z,18.28
2019-03-20T11:21:56.725Z,18.12
2019-03-20T11:24:27.317Z,18.14
2019-03-20T11:26:57.836Z,17.94
2019-03-20T11:29:39.776Z,17.74
2019-03-20T11:32:25.066Z,18.02
2019-03-20T11:35:03.206Z,18.01
2019-03-20T11:37:40.442Z,17.98
2019-03-20T11:40:30.143Z,18.00
2019-03-20T11:43:02.035Z,17.58
2019-03-20T11:45:34.421Z,17.85
2019-03-20T11:48:08.385Z,18.19
2019-03-20T11:50:45.130Z,17.87
2019-03-20T11:53:17.116Z,19.00
2019-03-20T11:55:48.191Z,18.89
2019-03-20T11:58:23.002Z,17.66
2019-03-20T12:01:03.620Z,18.14
2019-03-20T12:03:36.350Z,18.57
2019-03-20T12:06:21.862Z,19.11
2019-03-20T12:08:57.792Z,19.48
2019-03-20T12:11:45.203Z,20.49
2019-03-20T12:14:07.804Z,20.22
2019-03-20T12:16:42.672Z,20.75
2019-03-20T12:19:16.825Z,20.43
2019-03-20T12:21:53.281Z,19.35
2019-03-20T12:24:24.329Z,19.22
2019-03-20T12:26:55.238Z,19.03
2019-03-20T12:29:25.761Z,18.27
2019-03-20T12:31:56.202Z,18.28
2019-03-20T12:34:27.613Z,18.10
2019-03-20T12:36:58.103Z,19.42
2019-03-20T12:39:28.613Z,19.78
2019-03-20T12:42:00.174Z,19.79
2019-03-20T12:44:30.611Z,20.12
2019-03-20T12:47:01.052Z,20.54
2019-03-20T12:49:31.557Z,21.10
2019-03-20T12:52:02.368Z,20.83
2019-03-20T12:54:33.548Z,20.03
2019-03-20T12:57:03.973Z,18.98
2019-03-20T12:59:34.933Z,18.76
2019-03-20T13:02:08.166Z,17.58
2019-03-20T13:04:38.699Z,18.84
2019-03-20T13:07:46.273Z,19.24
2019-03-20T13:10:22.404Z,19.06
2019-03-20T13:13:01.421Z,19.49
2019-03-20T13:18:54.972Z,19.70
2019-03-20T13:21:32.696Z,20.17
2019-03-20T13:24:15.120Z,20.36
2019-03-20T13:26:55.248Z,20.64
2019-03-20T13:29:32.055Z,20.69
2019-03-20T13:32:04.805Z,20.01
2019-03-20T13:34:38.366Z,19.98
2019-03-20T13:37:09.441Z,19.27
2019-03-20T13:39:39.886Z,18.75
2019-03-20T13:42:10.366Z,18.79
2019-03-20T13:44:40.935Z,17.85
2019-03-20T13:47:11.403Z,17.38
2019-03-20T13:49:41.856Z,16.96
2019-03-20T13:52:12.654Z,17.05
2019-03-20T13:54:43.206Z,17.35
2019-03-20T13:57:13.678Z,17.96
2019-03-20T13:59:44.165Z,18.25
2019-03-20T14:02:14.675Z,16.97
2019-03-20T14:04:45.252Z,16.30
2019-03-20T14:07:15.751Z,15.95
